createdAt,value
2022-10-10T00:01:29.747Z,68124.25
2022-10-10T00:03:57.323Z,68117.81
2022-10-10T00:06:29.176Z,68128.00
2022-10-10T00:09:05.453Z,68136.88
2022-10-10T00:11:36.387Z,68129.31
2022-10-10T00:14:04.512Z,68127.06
2022-10-10T00:16:32.151Z,68134.22
2022-10-10T00:18:59.949Z,68126.13
2022-10-10T00:21:27.715Z,68132.34
2022-10-10T00:23:55.501Z,68135.91
2022-10-10T00:26:23.185Z,68127.63
2022-10-10T00:28:50.591Z,68125.72
2022-10-10T00:31:18.720Z,68113.66
2022-10-10T00:33:46.289Z,68110.63
2022-10-10T00:36:13.986Z,68100.63
2022-10-10T00:38:41.485Z,68107.22
2022-10-10T00:41:09.639Z,68099.50
2022-10-10T00:43:37.582Z,68101.38
2022-10-10T00:46:05.021Z,68094.41
2022-10-10T00:48:41.200Z,68087.63
2022-10-10T00:51:13.033Z,68085.72
2022-10-10T00:53:48.435Z,68082.53
2022-10-10T00:56:21.464Z,68078.56
2022-10-10T00:58:53.878Z,68087.44
2022-10-10T01:01:21.503Z,68081.41
2022-10-10T01:03:50.144Z,68081.41
2022-10-10T01:06:17.742Z,68083.25
2022-10-10T01:08:45.397Z,68077.22
2022-10-10T01:11:28.255Z,68076.69
2022-10-10T01:14:08.422Z,68074.59
2022-10-10T01:16:41.101Z,68074.41
2022-10-10T01:19:22.177Z,68079.69
2022-10-10T01:22:14.691Z,68082.34
2022-10-10T01:24:52.317Z,68077.22
2022-10-10T01:27:31.233Z,68083.25
2022-10-10T01:30:17.792Z,68084.97
2022-10-10T01:32:57.243Z,68083.09
2022-10-10T01:35:55.561Z,68082.53
2022-10-10T01:38:31.641Z,68078.00
2022-10-10T01:41:14.957Z,68089.50
2022-10-10T01:43:43.192Z,68077.44
2022-10-10T01:46:17.115Z,68074.03
2022-10-10T01:48:47.723Z,68081.78
2022-10-10T01:51:46.728Z,68077.22
2022-10-10T01:54:17.101Z,68073.84
2022-10-10T01:57:14.941Z,68073.28
2022-10-10T02:00:09.003Z,68069.91
2022-10-10T02:02:36.583Z,68067.25
2022-10-10T02:05:20.653Z,68061.97
2022-10-10T02:08:11.759Z,68065.56
2022-10-10T02:10:53.111Z,68066.13
2022-10-10T02:13:25.803Z,68071.00
2022-10-10T02:15:55.804Z,68070.47
2022-10-10T02:18:27.805Z,68069.53
2022-10-10T02:20:56.548Z,68064.41
2022-10-10T02:23:25.479Z,68065.19
2022-10-10T02:25:56.133Z,68069.31
2022-10-10T02:28:29.877Z,68065.56
2022-10-10T02:31:01.529Z,68063.88
2022-10-10T02:33:37.929Z,68072.16
2022-10-10T02:36:06.877Z,68066.88
2022-10-10T02:38:34.702Z,68061.41
2022-10-10T02:41:04.150Z,68070.06
2022-10-10T02:43:34.472Z,68075.34
2022-10-10T02:46:04.702Z,68063.09
2022-10-10T02:48:32.726Z,68057.06
2022-10-10T02:51:00.090Z,68059.34
2022-10-10T02:53:27.532Z,68062.53
2022-10-10T02:55:55.041Z,68054.81
2022-10-10T02:58:22.703Z,68061.97
2022-10-10T03:00:50.294Z,68067.06
2022-10-10T03:03:17.811Z,68069.13
2022-10-10T03:05:47.025Z,68066.13
2022-10-10T03:08:14.615Z,68067.25
2022-10-10T03:10:42.329Z,68075.56
2022-10-10T03:13:09.694Z,68078.19
2022-10-10T03:15:37.091Z,68076.31
2022-10-10T03:18:04.511Z,68075.19
2022-10-10T03:20:31.905Z,68076.13
2022-10-10T03:22:59.421Z,68070.47
2022-10-10T03:25:26.870Z,68075.56
2022-10-10T03:27:54.326Z,68070.09
2022-10-10T03:30:22.170Z,68090.81
2022-10-10T03:32:49.814Z,68087.22
2022-10-10T03:35:18.402Z,68083.81
2022-10-10T03:37:45.797Z,68085.53
2022-10-10T03:40:13.290Z,68084.22
2022-10-10T03:42:40.775Z,68087.59
2022-10-10T03:45:08.652Z,68076.13
2022-10-10T03:47:37.183Z,68072.91
2022-10-10T03:50:06.180Z,68076.50
2022-10-10T03:52:34.951Z,68081.38
2022-10-10T03:55:03.428Z,68072.34
2022-10-10T03:57:31.450Z,68071.78
2022-10-10T03:59:58.903Z,68072.16
2022-10-10T04:02:26.453Z,68071.56
2022-10-10T04:04:53.920Z,68077.59
2022-10-10T04:07:26.307Z,68068.38
2022-10-10T04:09:57.687Z,68057.06
2022-10-10T04:12:25.163Z,68060.06
2022-10-10T04:14:52.616Z,68060.47
2022-10-10T04:17:20.178Z,68051.41
2022-10-10T04:19:47.695Z,68055.19
2022-10-10T04:22:16.604Z,68048.38
2022-10-10T04:24:44.378Z,68035.94
2022-10-10T04:27:13.217Z,68047.81
2022-10-10T04:29:41.050Z,68032.00
2022-10-10T04:32:08.509Z,68033.31
2022-10-10T04:34:35.943Z,68039.13
2022-10-10T04:37:03.412Z,68034.81
2022-10-10T04:39:31.164Z,68038.19
2022-10-10T04:41:59.519Z,68041.78
2022-10-10T04:44:27.096Z,68029.34
2022-10-10T04:46:54.508Z,68023.50
2022-10-10T04:49:22.169Z,68020.28
2022-10-10T04:51:49.657Z,68028.59
2022-10-10T04:54:17.294Z,68029.16
2022-10-10T04:56:44.715Z,68029.53
2022-10-10T04:59:12.464Z,68017.09
2022-10-10T05:01:40.103Z,68013.91
2022-10-10T05:04:07.735Z,67999.94
2022-10-10T05:06:35.623Z,68012.19
2022-10-10T05:09:02.910Z,68022.75
2022-10-10T05:11:30.257Z,68027.81
2022-10-10T05:13:57.727Z,68012.19
2022-10-10T05:16:25.184Z,68010.13
2022-10-10T05:18:52.672Z,68005.97
2022-10-10T05:21:20.197Z,68011.06
2022-10-10T05:23:47.597Z,68021.22
2022-10-10T05:26:15.433Z,68012.94
2022-10-10T05:28:42.961Z,68015.56
2022-10-10T05:31:10.420Z,68031.81
2022-10-10T05:33:37.889Z,68029.16
2022-10-10T05:36:07.929Z,68021.06
2022-10-10T05:38:35.621Z,68041.03
2022-10-10T05:41:03.392Z,68037.66
2022-10-10T05:43:30.993Z,68039.53
2022-10-10T05:45:58.617Z,68052.34
2022-10-10T05:48:27.054Z,68055.00
2022-10-10T05:50:57.573Z,68064.25
2022-10-10T05:53:27.163Z,68056.13
2022-10-10T05:55:54.636Z,68057.06
2022-10-10T05:58:22.401Z,68064.03
2022-10-10T06:00:53.039Z,68071.00
2022-10-10T06:03:20.699Z,68071.78
2022-10-10T06:05:51.856Z,68066.13
2022-10-10T06:08:19.488Z,68074.41
2022-10-10T06:10:47.300Z,68070.63
2022-10-10T06:13:21.648Z,68076.13
2022-10-10T06:15:52.261Z,68075.91
2022-10-10T06:18:19.683Z,68088.75
2022-10-10T06:20:47.118Z,68096.47
2022-10-10T06:23:18.318Z,68104.97
2022-10-10T06:25:46.374Z,68119.50
2022-10-10T06:28:13.978Z,68129.13
2022-10-10T06:30:43.916Z,68136.69
2022-10-10T06:33:12.636Z,68150.25
2022-10-10T06:35:44.112Z,68149.88
2022-10-10T06:38:14.282Z,68157.25
2022-10-10T06:40:42.198Z,68157.81
2022-10-10T06:43:14.560Z,68169.50
2022-10-10T06:45:44.990Z,68169.50
2022-10-10T06:48:14.851Z,68173.47
2022-10-10T06:50:42.943Z,68170.06
2022-10-10T06:53:10.431Z,68171.41
2022-10-10T06:55:37.925Z,68171.97
2022-10-10T06:58:07.854Z,68166.31
2022-10-10T07:00:35.768Z,68166.50
2022-10-10T07:03:04.086Z,68167.44
2022-10-10T07:05:31.674Z,68171.41
2022-10-10T07:08:14.060Z,68166.88
2022-10-10T07:10:42.798Z,68169.50
2022-10-10T07:13:11.173Z,68176.50
2022-10-10T07:15:38.678Z,68172.53
2022-10-10T07:18:07.017Z,68182.72
2022-10-10T07:20:35.699Z,68188.00
2022-10-10T07:23:04.939Z,68188.97
2022-10-10T07:25:32.350Z,68194.81
2022-10-10T07:28:00.087Z,68192.94
2022-10-10T07:30:30.252Z,68196.31
2022-10-10T07:32:58.411Z,68202.56
2022-10-10T07:35:26.010Z,68208.22
2022-10-10T07:37:56.404Z,68218.22
2022-10-10T07:40:24.338Z,68235.75
2022-10-10T07:42:52.288Z,68246.16
2022-10-10T07:45:34.087Z,68252.97
2022-10-10T07:48:03.063Z,68267.13
2022-10-10T07:50:31.149Z,68284.31
2022-10-10T07:52:59.017Z,68278.25
2022-10-10T07:55:26.431Z,68287.88
2022-10-10T07:57:53.911Z,68301.88
2022-10-10T08:00:21.544Z,68301.13
2022-10-10T08:02:49.383Z,68309.44
2022-10-10T08:05:16.866Z,68321.72
2022-10-10T08:07:44.840Z,68339.69
2022-10-10T08:10:12.709Z,68349.69
2022-10-10T08:12:40.269Z,68357.06
2022-10-10T08:15:08.216Z,68361.97
2022-10-10T08:17:35.556Z,68365.00
2022-10-10T08:20:18.926Z,68362.94
2022-10-10T08:22:46.643Z,68378.81
2022-10-10T08:25:14.245Z,68382.38
2022-10-10T08:27:42.077Z,68387.69
2022-10-10T08:30:09.614Z,68395.81
2022-10-10T08:32:37.350Z,68399.22
2022-10-10T08:35:05.433Z,68413.97
2022-10-10T08:37:37.205Z,68425.88
2022-10-10T08:40:06.020Z,68438.91
2022-10-10T08:42:55.687Z,68450.63
2022-10-10T08:45:27.253Z,68459.72
2022-10-10T08:47:57.015Z,68455.94
2022-10-10T08:50:24.568Z,68471.63
2022-10-10T08:53:08.392Z,68464.06
2022-10-10T08:55:42.287Z,68478.63
2022-10-10T08:58:18.841Z,68478.63
2022-10-10T09:00:54.924Z,68475.78
2022-10-10T09:03:41.962Z,68482.03
2022-10-10T09:06:47.105Z,68492.81
2022-10-10T09:09:31.221Z,68500.00
2022-10-10T09:12:16.854Z,68503.22
2022-10-10T09:14:59.797Z,68520.28
2022-10-10T09:17:55.889Z,68524.44
2022-10-10T09:20:48.179Z,68534.09
2022-10-10T09:23:29.064Z,68525.38
2022-10-10T09:26:19.764Z,68521.22
2022-10-10T09:29:03.993Z,68524.63
2022-10-10T09:31:53.628Z,68538.81
2022-10-10T09:34:39.070Z,68558.09
2022-10-10T09:37:24.242Z,68594.63
2022-10-10T09:40:33.835Z,68623.97
2022-10-10T09:43:12.670Z,68627.59
2022-10-10T09:45:46.760Z,68640.44
2022-10-10T09:48:14.442Z,68641.78
2022-10-10T09:50:43.855Z,68637.03
2022-10-10T09:53:20.646Z,68625.50
2022-10-10T09:55:50.412Z,68625.69
2022-10-10T09:58:56.219Z,68621.69
2022-10-10T10:01:37.651Z,68625.88
2022-10-10T10:04:34.291Z,68636.88
2022-10-10T10:07:32.280Z,68639.13
2022-10-10T10:10:19.304Z,68640.06
2022-10-10T10:12:47.639Z,68642.72
2022-10-10T10:15:22.203Z,68643.88
2022-10-10T10:18:11.598Z,68609.16
2022-10-10T10:20:42.615Z,68641.56
2022-10-10T10:23:32.276Z,68638.91
2022-10-10T10:26:06.672Z,68670.56
2022-10-10T10:28:41.700Z,68684.22
2022-10-10T10:31:21.801Z,68713.19
2022-10-10T10:34:13.635Z,68721.72
2022-10-10T10:37:16.395Z,68716.53
2022-10-10T10:40:16.531Z,68742.19
2022-10-10T10:42:59.108Z,68745.59
2022-10-10T10:45:48.258Z,68746.75
2022-10-10T10:48:24.675Z,68756.56
2022-10-10T10:51:39.164Z,68776.69
2022-10-10T10:54:40.743Z,68747.78
2022-10-10T10:57:40.557Z,68780.84
2022-10-10T11:00:26.117Z,68781.59
2022-10-10T11:05:20.405Z,68784.25
2022-10-10T11:06:23.377Z,68758.69
2022-10-10T11:12:33.195Z,68780.28
2022-10-10T11:16:06.603Z,68772.13
2022-10-10T11:18:41.890Z,68778.78
2022-10-10T11:21:14.386Z,68777.81
2022-10-10T11:23:49.812Z,68775.16
2022-10-10T11:26:24.163Z,68775.16
2022-10-10T11:29:14.223Z,68777.41
2022-10-10T11:31:55.859Z,68782.94
2022-10-10T11:34:27.283Z,68770.63
2022-10-10T11:37:00.359Z,68763.78
2022-10-10T11:39:32.474Z,68762.06
2022-10-10T11:42:05.806Z,68772.88
2022-10-10T11:44:42.326Z,68801.91
2022-10-10T11:47:25.950Z,68773.63
2022-10-10T11:50:22.779Z,68780.28
2022-10-10T11:53:19.014Z,68770.63
2022-10-10T11:56:04.674Z,68781.41
2022-10-10T11:58:35.618Z,68796.59
2022-10-10T12:01:20.189Z,68787.09
2022-10-10T12:03:47.616Z,68812.13
2022-10-10T12:06:34.103Z,68827.50
2022-10-10T12:09:37.086Z,68853.31
2022-10-10T12:12:07.818Z,68848.94
2022-10-10T12:14:39.282Z,68858.78
2022-10-10T12:17:20.413Z,68855.84
2022-10-10T12:19:50.938Z,68898.22
2022-10-10T12:22:29.896Z,68888.25
2022-10-10T12:25:35.297Z,68914.94
2022-10-10T12:28:05.888Z,68921.75
2022-10-10T12:30:33.793Z,68934.31
2022-10-10T12:33:01.533Z,68964.88
2022-10-10T12:35:29.231Z,68975.47
2022-10-10T12:38:05.965Z,68948.88
2022-10-10T12:40:34.376Z,68930.50
2022-10-10T12:43:22.656Z,68924.22
2022-10-10T12:46:16.605Z,68937.16
2022-10-10T12:48:45.189Z,68964.66
2022-10-10T12:51:20.713Z,68964.81
2022-10-10T12:53:54.543Z,68988.41
2022-10-10T12:56:39.545Z,68991.97
2022-10-10T12:59:18.319Z,68981.16
2022-10-10T13:01:55.301Z,68976.22
2022-10-10T13:04:28.613Z,68982.88
2022-10-10T13:06:58.479Z,68961.09
2022-10-10T13:09:37.203Z,68980.59
2022-10-10T13:12:06.949Z,68960.66
2022-10-10T13:14:46.024Z,68963.34
2022-10-10T13:17:26.128Z,68959.53
2022-10-10T13:19:55.381Z,68954.97
2022-10-10T13:22:23.570Z,68947.19
2022-10-10T13:24:52.473Z,68953.44
2022-10-10T13:27:25.164Z,68948.31
2022-10-10T13:29:55.075Z,68935.97
2022-10-10T13:32:27.151Z,68939.03
2022-10-10T13:34:58.337Z,68942.63
2022-10-10T13:37:26.893Z,68947.75
2022-10-10T13:39:55.208Z,68967.50
2022-10-10T13:42:31.538Z,68981.50
2022-10-10T13:45:00.553Z,68979.28
2022-10-10T13:47:37.199Z,68981.75
2022-10-10T13:50:31.652Z,68985.72
2022-10-10T13:53:27.522Z,68988.56
2022-10-10T13:56:28.107Z,68963.50
2022-10-10T13:59:04.946Z,68959.16
2022-10-10T14:01:47.287Z,68920.72
2022-10-10T14:04:25.181Z,68937.50
2022-10-10T14:06:55.761Z,68946.44
2022-10-10T14:09:28.440Z,68948.72
2022-10-10T14:11:56.928Z,68965.78
2022-10-10T14:14:32.409Z,68965.97
2022-10-10T14:17:02.421Z,68969.03
2022-10-10T14:19:31.148Z,68960.66
2022-10-10T14:21:59.745Z,68964.06
2022-10-10T14:24:27.241Z,68965.06
2022-10-10T14:26:54.756Z,68977.16
2022-10-10T14:29:22.907Z,68989.47
2022-10-10T14:31:50.294Z,68986.84
2022-10-10T14:34:17.896Z,68980.19
2022-10-10T14:36:48.171Z,68975.28
2022-10-10T14:39:17.569Z,68972.78
2022-10-10T14:41:53.826Z,68970.91
2022-10-10T14:44:23.213Z,68974.91
2022-10-10T14:46:50.901Z,68981.75
2022-10-10T14:49:20.151Z,68974.34
2022-10-10T14:51:48.372Z,68970.34
2022-10-10T14:54:16.291Z,68975.28
2022-10-10T14:57:09.413Z,68969.94
2022-10-10T14:59:48.014Z,68962.00
2022-10-10T15:02:22.438Z,68953.84
2022-10-10T15:04:50.813Z,68950.41
2022-10-10T15:07:19.301Z,68931.06
2022-10-10T15:12:39.556Z,68903.00
2022-10-10T15:15:08.646Z,68883.25
2022-10-10T15:17:36.178Z,68877.00
2022-10-10T15:20:06.403Z,68877.16
2022-10-10T15:22:34.805Z,68877.94
2022-10-10T15:25:02.499Z,68873.38
2022-10-10T15:27:30.316Z,68867.31
2022-10-10T15:29:57.815Z,68862.03
2022-10-10T15:32:25.473Z,68857.84
2022-10-10T15:34:53.096Z,68853.66
2022-10-10T15:37:20.727Z,68828.81
2022-10-10T15:39:48.191Z,68836.03
2022-10-10T15:42:21.515Z,68829.19
2022-10-10T15:44:51.909Z,68830.53
2022-10-10T15:47:23.024Z,68811.56
2022-10-10T15:49:50.564Z,68788.78
2022-10-10T15:52:19.457Z,68782.53
2022-10-10T15:54:49.704Z,68759.25
2022-10-10T15:57:19.292Z,68733.66
2022-10-10T15:59:47.157Z,68724.75
2022-10-10T16:02:14.485Z,68717.94
2022-10-10T16:04:41.802Z,68696.72
2022-10-10T16:07:26.844Z,68686.50
2022-10-10T16:09:56.211Z,68684.44
2022-10-10T16:12:23.870Z,68685.53
2022-10-10T16:14:51.254Z,68679.66
2022-10-10T16:17:23.297Z,68682.50
2022-10-10T16:19:51.468Z,68688.56
2022-10-10T16:22:19.023Z,68679.66
2022-10-10T16:24:58.393Z,68668.31
2022-10-10T16:27:40.953Z,68645.75
2022-10-10T16:30:09.901Z,68635.34
2022-10-10T16:32:42.749Z,68651.81
2022-10-10T16:35:11.621Z,68650.69
2022-10-10T16:37:39.962Z,68638.00
2022-10-10T16:40:08.281Z,68638.75
2022-10-10T16:42:36.608Z,68640.84
2022-10-10T16:45:04.912Z,68635.34
2022-10-10T16:47:32.795Z,68645.38
2022-10-10T16:50:00.248Z,68629.09
2022-10-10T16:52:29.738Z,68615.47
2022-10-10T16:54:59.697Z,68624.19
2022-10-10T16:57:27.004Z,68615.47
2022-10-10T16:59:54.276Z,68618.88
2022-10-10T17:02:24.590Z,68634.00
2022-10-10T17:04:53.136Z,68611.50
2022-10-10T17:07:21.785Z,68598.97
2022-10-10T17:09:49.578Z,68596.34
2022-10-10T17:12:17.055Z,68594.84
2022-10-10T17:14:44.519Z,68583.09
2022-10-10T17:17:13.212Z,68580.81
2022-10-10T17:19:41.130Z,68596.53
2022-10-10T17:22:08.672Z,68582.53
2022-10-10T17:24:36.339Z,68577.41
2022-10-10T17:27:03.771Z,68578.56
2022-10-10T17:29:31.270Z,68584.78
2022-10-10T17:32:02.789Z,68589.31
2022-10-10T17:34:33.552Z,68583.47
2022-10-10T17:37:05.225Z,68576.28
2022-10-10T17:39:33.079Z,68563.97
2022-10-10T17:42:03.184Z,68567.75
2022-10-10T17:44:34.823Z,68581.97
2022-10-10T17:47:06.618Z,68576.09
2022-10-10T17:49:34.158Z,68593.88
2022-10-10T17:52:02.937Z,68591.22
2022-10-10T17:54:30.603Z,68588.59
2022-10-10T17:56:57.986Z,68594.06
2022-10-10T17:59:25.660Z,68589.72
2022-10-10T18:01:53.146Z,68599.38
2022-10-10T18:04:20.850Z,68598.41
2022-10-10T18:06:48.193Z,68601.28
2022-10-10T18:09:16.129Z,68595.78
2022-10-10T18:11:43.987Z,68589.91
2022-10-10T18:14:11.669Z,68599.94
2022-10-10T18:16:40.806Z,68608.06
2022-10-10T18:19:08.246Z,68607.13
2022-10-10T18:21:35.808Z,68604.09
2022-10-10T18:24:03.316Z,68595.19
2022-10-10T18:26:33.161Z,68594.44
2022-10-10T18:29:00.721Z,68588.00
2022-10-10T18:31:34.249Z,68602.78
2022-10-10T18:34:03.299Z,68597.28
2022-10-10T18:36:38.364Z,68596.16
2022-10-10T18:39:09.008Z,68592.19
2022-10-10T18:41:36.966Z,68595.94
2022-10-10T18:44:11.396Z,68595.59
2022-10-10T18:46:42.254Z,68597.47
2022-10-10T18:49:13.676Z,68580.44
2022-10-10T18:51:43.307Z,68605.81
2022-10-10T18:54:17.403Z,68602.41
2022-10-10T18:56:46.030Z,68610.72
2022-10-10T18:59:21.893Z,68619.81
2022-10-10T19:01:50.586Z,68645.94
2022-10-10T19:04:20.722Z,68651.44
2022-10-10T19:06:54.492Z,68672.66
2022-10-10T19:09:24.664Z,68648.41
2022-10-10T19:11:53.403Z,68667.75
2022-10-10T19:14:21.192Z,68643.47
2022-10-10T19:16:57.262Z,68635.34
2022-10-10T19:23:56.152Z,68610.16
2022-10-10T19:26:23.678Z,68626.06
2022-10-10T19:28:51.547Z,68618.50
2022-10-10T19:31:25.872Z,68604.28
2022-10-10T19:34:28.428Z,68608.47
2022-10-10T19:36:56.637Z,68636.09
2022-10-10T19:39:24.098Z,68635.53
2022-10-10T19:41:51.469Z,68660.75
2022-10-10T19:44:18.884Z,68663.56
2022-10-10T19:46:47.630Z,68640.63
2022-10-10T19:49:15.059Z,68617.16
2022-10-10T19:51:49.565Z,68611.13
2022-10-10T19:54:19.729Z,68581.19
2022-10-10T19:56:48.542Z,68578.56
2022-10-10T19:59:18.239Z,68578.19
2022-10-10T20:01:46.541Z,68560.38
2022-10-10T20:04:14.468Z,68558.28
2022-10-10T20:06:43.785Z,68552.81
2022-10-10T20:09:12.065Z,68535.41
2022-10-10T20:11:39.705Z,68529.91
2022-10-10T20:14:08.093Z,68543.53
2022-10-10T20:16:40.599Z,68543.91
2022-10-10T20:19:08.629Z,68552.41
2022-10-10T20:21:37.423Z,68555.28
2022-10-10T20:24:07.953Z,68543.75
2022-10-10T20:26:38.997Z,68555.84
2022-10-10T20:29:07.383Z,68547.50
2022-10-10T20:31:36.730Z,68568.69
2022-10-10T20:34:06.070Z,68563.78
2022-10-10T20:36:44.806Z,68563.22
2022-10-10T20:39:13.942Z,68578.34
2022-10-10T20:41:42.099Z,68575.53
2022-10-10T20:44:12.922Z,68590.09
2022-10-10T20:46:43.186Z,68597.47
2022-10-10T20:49:20.795Z,68586.09
2022-10-10T20:51:51.639Z,68579.13
2022-10-10T20:54:22.288Z,68568.34
2022-10-10T20:56:50.213Z,68567.38
2022-10-10T20:59:19.585Z,68569.47
2022-10-10T21:02:09.045Z,68572.66
2022-10-10T21:04:40.108Z,68568.91
2022-10-10T21:07:08.018Z,68579.13
2022-10-10T21:09:35.349Z,68573.63
2022-10-10T21:12:03.380Z,68568.13
2022-10-10T21:14:30.871Z,68566.44
2022-10-10T21:16:58.444Z,68564.16
2022-10-10T21:19:26.010Z,68564.16
2022-10-10T21:21:53.522Z,68563.22
2022-10-10T21:24:20.897Z,68558.84
2022-10-10T21:26:50.476Z,68569.84
2022-10-10T21:29:17.898Z,68564.94
2022-10-10T21:31:45.755Z,68578.75
2022-10-10T21:34:15.735Z,68562.06
2022-10-10T21:36:47.125Z,68560.56
2022-10-10T21:39:14.882Z,68549.78
2022-10-10T21:41:42.600Z,68546.75
2022-10-10T21:44:11.165Z,68532.75
2022-10-10T21:46:38.588Z,68542.03
2022-10-10T21:49:11.321Z,68545.44
2022-10-10T21:51:41.475Z,68545.63
2022-10-10T21:54:09.939Z,68542.97
2022-10-10T21:56:37.888Z,68532.19
2022-10-10T21:59:05.578Z,68539.94
2022-10-10T22:01:33.532Z,68541.81
2022-10-10T22:04:02.686Z,68547.88
2022-10-10T22:06:31.613Z,68551.09
2022-10-10T22:09:00.986Z,68555.28
2022-10-10T22:11:30.652Z,68550.75
2022-10-10T22:13:58.235Z,68551.09
2022-10-10T22:16:26.016Z,68552.78
2022-10-10T22:18:57.656Z,68548.44
2022-10-10T22:21:30.290Z,68541.66
2022-10-10T22:24:02.184Z,68552.81
2022-10-10T22:26:30.797Z,68543.91
2022-10-10T22:28:58.512Z,68540.72
2022-10-10T22:31:26.652Z,68528.03
2022-10-10T22:33:54.049Z,68524.44
2022-10-10T22:36:21.579Z,68525.94
2022-10-10T22:38:49.092Z,68533.50
2022-10-10T22:41:16.564Z,68527.25
2022-10-10T22:43:43.969Z,68532.19
2022-10-10T22:46:11.423Z,68529.16
2022-10-10T22:48:39.356Z,68527.63
2022-10-10T22:51:10.809Z,68523.69
2022-10-10T22:53:39.575Z,68521.22
2022-10-10T22:56:07.897Z,68518.38
2022-10-10T22:58:35.702Z,68512.13
2022-10-10T23:01:16.019Z,68498.31
2022-10-10T23:03:44.277Z,68500.75
2022-10-10T23:06:12.273Z,68499.22
2022-10-10T23:08:39.557Z,68492.25
2022-10-10T23:11:07.249Z,68480.16
2022-10-10T23:13:34.773Z,68480.16
2022-10-10T23:16:02.623Z,68474.09
2022-10-10T23:18:30.942Z,68471.81
2022-10-10T23:20:58.449Z,68476.75
2022-10-10T23:23:26.225Z,68470.50
2022-10-10T23:25:55.912Z,68475.41
2022-10-10T23:28:23.471Z,68458.22
2022-10-10T23:30:51.061Z,68461.25
2022-10-10T23:33:18.831Z,68450.81
2022-10-10T23:35:59.797Z,68465.22
2022-10-10T23:38:27.978Z,68443.44
2022-10-10T23:40:58.451Z,68439.09
2022-10-10T23:43:26.232Z,68441.75
2022-10-10T23:45:53.732Z,68426.06
2022-10-10T23:48:21.842Z,68420.19
2022-10-10T23:50:49.458Z,68412.25
2022-10-10T23:53:16.942Z,68410.38
2022-10-10T23:55:45.939Z,68410.94
2022-10-10T23:58:13.994Z,68400.91
